Veronica — IFNU — position and weather

sailwx.info

Track history (hours):
 
Tides and Currents Weather Stations Pressure Air Temp Water Temp Dewpoint Dewpoint Depression Visibility Wind Speed Wind Dir Waves Ship Positions

Veronica

Last reported at 2016-Jul-21 00:07 UTC. Time now 2016-Jul-25 00:17 UTC.
Position N 38°24' E 008°55'.

Length 30 m.

Type: Fishing. MMSI: 247151990.

Date/timePositionNaut miles runAvg speedWind from/ knotsBaromVisibWave heightAir tempDewpointWater temp
2016-Jul-21 00:07N 38°24' E 008°55'710.3
2016-Jul-20 23:26N 38°21' E 009°03'910.3
2016-Jul-20 22:33N 38°18' E 009°14'20 9.8
2016-Jul-20 20:32N 38°09' E 009°36'1 0.5
2016-Jul-20 19:33N 38°08' E 009°36'2 2.5
2016-Jul-20 18:33N 38°06' E 009°34'4 0.8
2016-Jul-20 13:10N 38°03' E 009°30'2 2.5
2016-Jul-20 12:19N 38°04' E 009°32'2 2.5
2016-Jul-20 11:32N 38°06' E 009°34'5 2.3
2016-Jul-20 09:32N 38°08' E 009°39'1 0.9
2016-Jul-20 08:32N 38°08' E 009°38'5 2.5
2016-Jul-20 06:34N 38°05' E 009°33'12 0.9
2016-Jul-19 17:18N 38°06' E 009°49'1 1.0
2016-Jul-19 16:33N 38°06' E 009°48'3 2.6
2016-Jul-19 15:17N 38°07' E 009°44'2 2.5
2016-Jul-19 14:33N 38°08' E 009°42'3 2.6
2016-Jul-19 13:32N 38°08' E 009°39'2 2.0
2016-Jul-19 12:33N 38°08' E 009°36'1 1.0
2016-Jul-19 11:33N 38°07' E 009°35'2 2.4
2016-Jul-19 10:33N 38°05' E 009°33'2 2.5
2016-Jul-19 09:33N 38°03' E 009°33'54 5.8
2016-Jul-19 00:13N 38°40' E 008°43'  
Track history (hours):
 
Tides and Currents Weather Stations Pressure Air Temp Water Temp Dewpoint Dewpoint Depression Visibility Wind Speed Wind Dir Waves Ship Positions

Veronica

Last reported at 2016-Jul-21 00:07 UTC. Time now 2016-Jul-25 00:17 UTC.
Position N 38°24' E 008°55'.

Length 30 m.

Type: Fishing. MMSI: 247151990.

Date/timePositionNaut miles runAvg speedWind from/ knotsBaromVisibWave heightAir tempDewpointWater temp
2016-Jul-21 00:07N 38°24' E 008°55'710.3
2016-Jul-20 23:26N 38°21' E 009°03'910.3
2016-Jul-20 22:33N 38°18' E 009°14'20 9.8
2016-Jul-20 20:32N 38°09' E 009°36'1 0.5
2016-Jul-20 19:33N 38°08' E 009°36'2 2.5
2016-Jul-20 18:33N 38°06' E 009°34'4 0.8
2016-Jul-20 13:10N 38°03' E 009°30'2 2.5
2016-Jul-20 12:19N 38°04' E 009°32'2 2.5
2016-Jul-20 11:32N 38°06' E 009°34'5 2.3
2016-Jul-20 09:32N 38°08' E 009°39'1 0.9
2016-Jul-20 08:32N 38°08' E 009°38'5 2.5
2016-Jul-20 06:34N 38°05' E 009°33'12 0.9
2016-Jul-19 17:18N 38°06' E 009°49'1 1.0
2016-Jul-19 16:33N 38°06' E 009°48'3 2.6
2016-Jul-19 15:17N 38°07' E 009°44'2 2.5
2016-Jul-19 14:33N 38°08' E 009°42'3 2.6
2016-Jul-19 13:32N 38°08' E 009°39'2 2.0
2016-Jul-19 12:33N 38°08' E 009°36'1 1.0
2016-Jul-19 11:33N 38°07' E 009°35'2 2.4
2016-Jul-19 10:33N 38°05' E 009°33'2 2.5
2016-Jul-19 09:33N 38°03' E 009°33'54 5.8
2016-Jul-19 00:13N 38°40' E 008°43'  

Dump ship's entire track history